Portada
METAR-TAF:

METAR-TAF

Aeroports :

Magnitogorsk, Rússia

latitud: 53-23-36N, longitud: 058-45-24E, altitud: 436 m

Observació

L'informe es va fer fa 46 minuts, a les 09:30 UTC
Vent 8 kt del Nord/Nord-Est
Temperatura -5°C
Humitat 79%
Pressió 1027 hPa
Visibilitat 10 km o més
Núvols disperses a una alçada de 4000 ft

METAR: USCM 190930Z 03004MPS 9999 SCT040 M05/M08 Q1027 R36/090060 NOSIG RMK QFE731

Hora: 15:16 (10:16 UTC)

Pronòstic

L'informe es va fer fa 2 hores i 16 minuts, a les 08:00 UTC
Pronòstic vàlid del 19 a les 09 UTC al 19 a les 18 UTC
Vent 6 kt del Nord/Nord-Est amb ràfegues de 16 kt
Visibilitat 10 km o més
Cel ennuvolat a una alçada de 2000 ft
Temporalment
l' 19 a les 15 UTC al 19 a les 18 UTC
Visibilitat: 3100 m
Cel ennuvolat a una alçada de 1100 ft
neu, boirina

TAF: USCM 190800Z 1909/1918 02003G08MPS 9999 BKN020 TEMPO 1915/1918 3100 -SN BR BKN011

Observacions i pronòstics meteorològics de més de 4000 aeroports (METAR i TAF).

Les estacions disponibles són els punts grocs i vermells al mapa.

Posi el ratolí al punt desitjat per veure el nom de l'estació.

Feu clic per veure les observacions i els pronòstics meteorològics.

Per canviar el mapa: feu clic els botons verds amb una creu de color negre per apropar; al botó verd amb un guió per allunyar la imatge; o en les fletxes verdes per a mapes adjacents.


METAR-TAF: